createdAt,value
2017-06-17T00:01:16.061Z,23.44
2017-06-17T00:02:15.980Z,23.44
2017-06-17T00:03:15.926Z,23.54
2017-06-17T00:04:15.857Z,23.46
2017-06-17T00:05:15.804Z,23.44
2017-06-17T00:06:15.736Z,23.5
2017-06-17T00:07:15.672Z,23.51
2017-06-17T00:08:15.308Z,23.58
2017-06-17T00:09:15.549Z,23.55
2017-06-17T00:10:15.487Z,23.41
2017-06-17T00:11:15.625Z,23.51
2017-06-17T00:12:15.060Z,23.44
2017-06-17T00:13:15.303Z,23.54
2017-06-17T00:14:15.239Z,23.47
2017-06-17T00:15:14.884Z,23.41
2017-06-17T00:16:15.114Z,23.43
2017-06-17T00:17:14.788Z,23.44
2017-06-17T00:18:14.689Z,23.5
2017-06-17T00:19:14.330Z,23.44
2017-06-17T00:20:14.877Z,23.46
2017-06-17T00:21:14.824Z,23.44
2017-06-17T00:22:14.744Z,23.47
2017-06-17T00:23:14.685Z,23.44
2017-06-17T00:24:14.616Z,23.41
2017-06-17T00:25:14.560Z,23.46
2017-06-17T00:26:14.495Z,23.5
2017-06-17T00:27:14.438Z,23.48
2017-06-17T00:28:14.371Z,23.47
2017-06-17T00:29:14.311Z,23.47
2017-06-17T00:30:14.247Z,23.47
2017-06-17T00:31:14.214Z,23.48
2017-06-17T00:32:14.123Z,23.43
2017-06-17T00:33:14.062Z,23.44
2017-06-17T00:34:13.998Z,23.44
2017-06-17T00:35:13.939Z,23.48
2017-06-17T00:36:13.881Z,23.39
2017-06-17T00:37:13.815Z,23.39
2017-06-17T00:38:13.752Z,23.44
2017-06-17T00:39:13.690Z,23.46
2017-06-17T00:40:13.630Z,23.44
2017-06-17T00:41:13.573Z,23.44
2017-06-17T00:42:13.505Z,23.46
2017-06-17T00:43:13.443Z,23.46
2017-06-17T00:44:13.380Z,23.41
2017-06-17T00:45:13.321Z,23.48
2017-06-17T00:46:12.957Z,23.46
2017-06-17T00:47:13.196Z,23.48
2017-06-17T00:48:13.134Z,23.43
2017-06-17T00:49:13.070Z,23.47
2017-06-17T00:50:13.036Z,23.47
2017-06-17T00:51:12.951Z,23.46
2017-06-17T00:52:12.584Z,23.46
2017-06-17T00:53:12.824Z,23.44
2017-06-17T00:54:12.785Z,23.46
2017-06-17T00:55:12.400Z,23.43
2017-06-17T00:56:12.640Z,23.46
2017-06-17T00:57:12.575Z,23.48
2017-06-17T00:58:12.218Z,23.48
2017-06-17T00:59:12.449Z,23.47
2017-06-17T01:00:12.395Z,23.46
2017-06-17T01:01:12.331Z,23.5
2017-06-17T01:02:12.271Z,23.5
2017-06-17T01:03:12.206Z,23.48
2017-06-17T01:04:12.143Z,23.47
2017-06-17T01:05:12.084Z,23.4
2017-06-17T01:06:11.720Z,23.48
2017-06-17T01:07:11.956Z,23.44
2017-06-17T01:08:11.592Z,23.47
2017-06-17T01:09:11.837Z,23.46
2017-06-17T01:10:11.772Z,23.48
2017-06-17T01:11:11.713Z,23.46
2017-06-17T01:12:11.649Z,23.48
2017-06-17T01:13:11.598Z,23.4
2017-06-17T01:14:11.524Z,23.47
2017-06-17T01:15:11.462Z,23.31
2017-06-17T01:16:11.099Z,23.37
2017-06-17T01:17:11.339Z,23.44
2017-06-17T01:18:10.977Z,23.47
2017-06-17T01:19:11.213Z,23.44
2017-06-17T01:20:10.853Z,23.48
2017-06-17T01:21:11.092Z,23.44
2017-06-17T01:22:11.032Z,23.46
2017-06-17T01:23:10.968Z,23.46
2017-06-17T01:24:10.905Z,23.4
2017-06-17T01:25:10.843Z,23.37
2017-06-17T01:26:10.781Z,23.46
2017-06-17T01:27:10.718Z,23.48
2017-06-17T01:28:10.660Z,23.44
2017-06-17T01:29:10.591Z,23.44
2017-06-17T01:30:10.232Z,23.46
2017-06-17T01:31:10.474Z,23.34
2017-06-17T01:32:10.410Z,23.44
2017-06-17T01:33:10.345Z,23.47
2017-06-17T01:34:10.286Z,23.44
2017-06-17T01:35:10.130Z,23.41
2017-06-17T01:36:09.858Z,23.46
2017-06-17T01:37:09.796Z,23.47
2017-06-17T01:38:10.039Z,23.46
2017-06-17T01:39:09.977Z,23.44
2017-06-17T01:40:09.618Z,23.41
2017-06-17T01:41:09.548Z,23.39
2017-06-17T01:42:09.490Z,23.44
2017-06-17T01:43:09.428Z,23.46
2017-06-17T01:44:09.670Z,23.44
2017-06-17T01:45:09.301Z,23.39
2017-06-17T01:46:09.543Z,23.44
2017-06-17T01:47:09.482Z,23.36
2017-06-17T01:48:09.114Z,23.37
2017-06-17T01:49:09.360Z,23.36
2017-06-17T01:50:09.299Z,23.37
2017-06-17T01:51:09.234Z,23.4
2017-06-17T01:52:09.172Z,23.4
2017-06-17T01:53:09.109Z,23.36
2017-06-17T01:54:09.046Z,23.39
2017-06-17T01:55:08.986Z,23.43
2017-06-17T01:56:08.921Z,23.37
2017-06-17T01:57:08.858Z,23.44
2017-06-17T01:58:08.503Z,23.44
2017-06-17T01:59:08.941Z,23.34
2017-06-17T02:00:08.677Z,23.36
2017-06-17T02:01:08.615Z,23.31
2017-06-17T02:02:08.252Z,23.37
2017-06-17T02:03:08.490Z,23.37
2017-06-17T02:04:08.124Z,23.27
2017-06-17T02:05:08.368Z,23.37
2017-06-17T02:06:08.306Z,23.36
2017-06-17T02:07:07.937Z,23.36
2017-06-17T02:08:07.876Z,23.44
2017-06-17T02:09:08.116Z,23.34
2017-06-17T02:10:07.752Z,23.4
2017-06-17T02:11:07.993Z,23.37
2017-06-17T02:12:07.631Z,23.37
2017-06-17T02:13:07.566Z,23.27
2017-06-17T02:14:07.809Z,23.27
2017-06-17T02:15:07.747Z,23.32
2017-06-17T02:16:07.382Z,23.36
2017-06-17T02:17:07.618Z,23.41
2017-06-17T02:18:07.563Z,23.46
2017-06-17T02:19:07.498Z,23.25
2017-06-17T02:20:07.435Z,23.31
2017-06-17T02:21:07.376Z,23.34
2017-06-17T02:22:07.313Z,23.32
2017-06-17T02:23:06.951Z,23.37
2017-06-17T02:24:06.885Z,23.34
2017-06-17T02:25:07.126Z,23.32
2017-06-17T02:26:06.763Z,23.27
2017-06-17T02:27:07.002Z,23.32
2017-06-17T02:28:06.941Z,23.24
2017-06-17T02:29:06.880Z,23.34
2017-06-17T02:30:06.522Z,23.28
2017-06-17T02:31:06.753Z,23.27
2017-06-17T02:32:06.694Z,23.31
2017-06-17T02:33:06.633Z,23.25
2017-06-17T02:34:06.574Z,23.37
2017-06-17T02:35:06.507Z,23.28
2017-06-17T02:36:06.445Z,23.36
2017-06-17T02:37:06.383Z,23.31
2017-06-17T02:38:06.318Z,23.4
2017-06-17T02:39:06.261Z,23.28
2017-06-17T02:40:06.197Z,23.4
2017-06-17T02:41:06.140Z,23.32
2017-06-17T02:42:06.069Z,23.28
2017-06-17T02:43:06.011Z,23.31
2017-06-17T02:44:05.647Z,23.34
2017-06-17T02:45:05.887Z,23.31
2017-06-17T02:46:05.825Z,23.31
2017-06-17T02:47:05.763Z,23.37
2017-06-17T02:48:05.400Z,23.43
2017-06-17T02:49:05.639Z,23.31
2017-06-17T02:50:05.576Z,23.39
2017-06-17T02:51:05.514Z,23.32
2017-06-17T02:52:05.148Z,23.28
2017-06-17T02:53:05.403Z,23.28
2017-06-17T02:54:05.328Z,23.43
2017-06-17T02:55:04.963Z,23.34
2017-06-17T02:56:04.901Z,23.4
2017-06-17T02:57:05.141Z,23.31
2017-06-17T02:58:04.778Z,23.39
2017-06-17T02:59:05.017Z,23.27
2017-06-17T03:00:04.960Z,23.32
2017-06-17T03:01:04.594Z,23.28
2017-06-17T03:02:04.528Z,23.28
2017-06-17T03:03:04.772Z,23.31
2017-06-17T03:04:04.706Z,23.39
2017-06-17T03:05:04.643Z,23.31
2017-06-17T03:06:04.278Z,23.34
2017-06-17T03:07:04.517Z,23.34
2017-06-17T03:08:04.457Z,23.28
2017-06-17T03:09:04.396Z,23.32
2017-06-17T03:10:04.338Z,23.31
2017-06-17T03:11:04.277Z,23.39
2017-06-17T03:12:04.209Z,23.32
2017-06-17T03:13:03.869Z,23.28
2017-06-17T03:14:04.090Z,23.28
2017-06-17T03:15:03.727Z,23.34
2017-06-17T03:16:03.968Z,23.28
2017-06-17T03:17:03.914Z,23.32
2017-06-17T03:18:03.836Z,23.32
2017-06-17T03:19:03.781Z,23.34
2017-06-17T03:20:03.717Z,23.31
2017-06-17T03:21:03.652Z,23.36
2017-06-17T03:22:03.298Z,23.37
2017-06-17T03:23:03.529Z,23.27
2017-06-17T03:24:03.471Z,23.27
2017-06-17T03:25:03.405Z,23.32
2017-06-17T03:26:03.342Z,23.37
2017-06-17T03:27:03.283Z,23.32
2017-06-17T03:28:03.222Z,23.32
2017-06-17T03:29:03.160Z,23.39
2017-06-17T03:30:03.097Z,23.36
2017-06-17T03:31:03.039Z,23.37
2017-06-17T03:32:02.979Z,23.28
2017-06-17T03:33:02.905Z,23.32
2017-06-17T03:34:02.852Z,23.36
2017-06-17T03:35:02.783Z,23.36
2017-06-17T03:36:02.719Z,23.31
2017-06-17T03:37:02.660Z,23.34
2017-06-17T03:38:02.595Z,23.36
2017-06-17T03:39:02.567Z,23.28
2017-06-17T03:40:02.472Z,23.27
2017-06-17T03:41:02.418Z,23.27
2017-06-17T03:42:02.349Z,23.21
2017-06-17T03:43:02.289Z,23.31
2017-06-17T03:44:02.225Z,23.25
2017-06-17T03:45:02.164Z,23.34
2017-06-17T03:46:01.798Z,23.28
2017-06-17T03:47:01.738Z,23.39
2017-06-17T03:48:01.675Z,23.32
2017-06-17T03:49:01.917Z,23.25
2017-06-17T03:50:01.552Z,23.36
2017-06-17T03:51:01.490Z,23.34
2017-06-17T03:52:01.726Z,23.31
2017-06-17T03:53:01.666Z,23.36
2017-06-17T03:54:01.603Z,23.28
2017-06-17T03:55:01.541Z,23.27
2017-06-17T03:56:01.481Z,23.24
2017-06-17T03:57:01.415Z,23.28
2017-06-17T03:58:01.359Z,23.27
2017-06-17T03:59:01.298Z,23.25
2017-06-17T04:00:01.237Z,23.28
2017-06-17T04:01:01.173Z,23.32
2017-06-17T04:02:00.505Z,23.32
2017-06-17T04:03:01.047Z,23.27
2017-06-17T04:04:00.982Z,23.25
2017-06-17T04:05:00.923Z,23.28
2017-06-17T04:06:00.558Z,23.32
2017-06-17T04:07:00.799Z,23.21
2017-06-17T04:08:00.737Z,23.23
2017-06-17T04:09:00.677Z,23.23
2017-06-17T04:10:00.613Z,23.21
2017-06-17T04:11:00.549Z,23.2
2017-06-17T04:12:00.489Z,23.23
2017-06-17T04:13:00.425Z,23.2
2017-06-17T04:14:00.367Z,23.25
2017-06-17T04:15:00.304Z,23.24
2017-06-17T04:16:00.238Z,23.21
2017-06-17T04:17:00.176Z,23.24
2017-06-17T04:18:00.112Z,23.24
2017-06-17T04:19:00.049Z,23.21
2017-06-17T04:19:59.989Z,23.2
2017-06-17T04:20:59.928Z,23.24
2017-06-17T04:21:59.867Z,23.24
2017-06-17T04:22:59.804Z,23.1
2017-06-17T04:23:59.739Z,23.17
2017-06-17T04:24:59.682Z,23.21
2017-06-17T04:25:59.619Z,23.12
2017-06-17T04:26:59.553Z,23.18
2017-06-17T04:27:59.491Z,23.2
2017-06-17T04:28:59.428Z,23.18
2017-06-17T04:29:59.369Z,23.15
2017-06-17T04:30:59.303Z,23.17
2017-06-17T04:31:59.245Z,23.13
2017-06-17T04:32:58.881Z,23.17
2017-06-17T04:33:58.820Z,23.12
2017-06-17T04:34:59.058Z,23.12
2017-06-17T04:35:58.994Z,23.13
2017-06-17T04:36:58.946Z,23.13
2017-06-17T04:37:58.867Z,23.13
2017-06-17T04:38:58.810Z,23.15
2017-06-17T04:39:58.441Z,23.1
2017-06-17T04:40:58.387Z,23.13
2017-06-17T04:41:58.318Z,23.18
2017-06-17T04:42:58.557Z,23.09
2017-06-17T04:43:58.493Z,23.12
2017-06-17T04:44:58.133Z,23.13
2017-06-17T04:45:58.372Z,23.08
2017-06-17T04:46:58.314Z,23.08
2017-06-17T04:47:57.945Z,23.13
2017-06-17T04:48:58.187Z,23.08
2017-06-17T04:49:57.819Z,23.18
2017-06-17T04:50:58.061Z,23.1
2017-06-17T04:51:58.001Z,23.15
2017-06-17T04:52:57.938Z,23.09
2017-06-17T04:53:57.572Z,23.1
2017-06-17T04:54:57.813Z,23.12
2017-06-17T04:55:57.753Z,23.08
2017-06-17T04:56:57.696Z,23.12
2017-06-17T04:57:57.635Z,23.05
2017-06-17T04:58:57.268Z,23.1
2017-06-17T04:59:57.502Z,23.06
2017-06-17T05:00:57.443Z,23.08
2017-06-17T05:01:57.081Z,23.02
2017-06-17T05:02:57.317Z,23
2017-06-17T05:03:57.248Z,23
2017-06-17T05:04:57.195Z,23
2017-06-17T05:05:57.278Z,23
2017-06-17T05:06:57.069Z,23.03
2017-06-17T05:07:57.001Z,23.02
2017-06-17T05:08:56.940Z,23.05
2017-06-17T05:09:56.875Z,23.03
2017-06-17T05:10:56.816Z,23.06
2017-06-17T05:11:56.751Z,23.06
2017-06-17T05:12:56.692Z,23.06
2017-06-17T05:13:56.626Z,23
2017-06-17T05:14:56.562Z,22.99
2017-06-17T05:15:56.502Z,23.05
2017-06-17T05:16:56.440Z,22.99
2017-06-17T05:17:56.377Z,23.05
2017-06-17T05:18:56.315Z,23.02
2017-06-17T05:19:55.947Z,23
2017-06-17T05:20:56.193Z,23.03
2017-06-17T05:21:55.827Z,23.05
2017-06-17T05:22:56.067Z,23.02
2017-06-17T05:23:56.004Z,23.05
2017-06-17T05:24:55.944Z,23.02
2017-06-17T05:25:55.881Z,22.99
2017-06-17T05:26:55.515Z,23.05
2017-06-17T05:27:55.757Z,23.02
2017-06-17T05:28:55.688Z,23.02
2017-06-17T05:29:55.627Z,22.91
2017-06-17T05:30:55.564Z,23.05
2017-06-17T05:31:55.509Z,22.98
2017-06-17T05:32:55.442Z,22.98
2017-06-17T05:33:55.378Z,22.98
2017-06-17T05:34:55.317Z,22.9
2017-06-17T05:35:54.951Z,23
2017-06-17T05:36:55.195Z,22.98
2017-06-17T05:37:55.126Z,22.96
2017-06-17T05:38:55.071Z,22.99
2017-06-17T05:39:55.005Z,22.94
2017-06-17T05:40:54.939Z,22.88
2017-06-17T05:41:54.881Z,22.98
2017-06-17T05:42:54.820Z,22.94
2017-06-17T05:43:54.749Z,23
2017-06-17T05:44:54.691Z,22.85
2017-06-17T05:45:54.629Z,22.96
2017-06-17T05:46:54.568Z,22.85
2017-06-17T05:47:54.202Z,22.93
2017-06-17T05:48:54.445Z,23
2017-06-17T05:49:54.380Z,22.98
2017-06-17T05:50:54.322Z,23
2017-06-17T05:51:54.254Z,22.99
2017-06-17T05:52:54.208Z,22.91
2017-06-17T05:53:54.128Z,22.87
2017-06-17T05:54:54.064Z,22.93
2017-06-17T05:55:53.703Z,22.88
2017-06-17T05:56:53.636Z,22.93
2017-06-17T05:57:53.878Z,22.9
2017-06-17T05:58:53.517Z,22.93
2017-06-17T05:59:53.755Z,22.93
2017-06-17T06:00:53.703Z,22.91
2017-06-17T06:01:53.625Z,22.88
2017-06-17T06:02:53.589Z,22.91
2017-06-17T06:03:53.508Z,22.9
2017-06-17T06:04:53.471Z,22.9
2017-06-17T06:05:53.378Z,22.9
2017-06-17T06:06:53.317Z,22.9
2017-06-17T06:07:53.254Z,22.94
2017-06-17T06:08:53.195Z,22.93
2017-06-17T06:09:53.129Z,22.91
2017-06-17T06:10:53.069Z,22.8
2017-06-17T06:11:53.005Z,22.91
2017-06-17T06:12:52.943Z,22.93
2017-06-17T06:13:52.882Z,22.91
2017-06-17T06:14:52.825Z,22.78
2017-06-17T06:15:52.756Z,22.83
2017-06-17T06:16:52.689Z,22.94
2017-06-17T06:17:52.629Z,22.91
2017-06-17T06:18:52.564Z,22.9
2017-06-17T06:19:52.202Z,22.84
2017-06-17T06:20:52.440Z,22.73
2017-06-17T06:21:52.379Z,22.81
2017-06-17T06:22:52.014Z,22.81
2017-06-17T06:23:51.950Z,22.8
2017-06-17T06:24:52.190Z,22.83
2017-06-17T06:25:51.823Z,22.8
2017-06-17T06:26:52.065Z,22.8
2017-06-17T06:27:52.006Z,22.81
2017-06-17T06:28:51.938Z,22.84
2017-06-17T06:29:51.880Z,22.84
2017-06-17T06:30:51.814Z,22.84
2017-06-17T06:31:51.774Z,22.78
2017-06-17T06:32:51.689Z,22.83
2017-06-17T06:33:51.327Z,22.83
2017-06-17T06:34:51.566Z,22.81
2017-06-17T06:35:51.502Z,22.78
2017-06-17T06:36:51.440Z,22.76
2017-06-17T06:37:51.375Z,22.84
2017-06-17T06:38:51.011Z,22.87
2017-06-17T06:39:51.250Z,22.84
2017-06-17T06:40:51.188Z,22.83
2017-06-17T06:41:51.125Z,22.76
2017-06-17T06:42:50.763Z,22.84
2017-06-17T06:43:50.997Z,22.81
2017-06-17T06:44:50.946Z,22.87
2017-06-17T06:45:50.875Z,22.83
2017-06-17T06:46:50.512Z,22.81
2017-06-17T06:47:50.450Z,22.81
2017-06-17T06:48:50.386Z,22.84
2017-06-17T06:49:50.323Z,22.81
2017-06-17T06:50:49.957Z,22.81
2017-06-17T06:51:50.500Z,22.78
2017-06-17T06:52:50.436Z,22.81
2017-06-17T06:53:50.386Z,22.78
2017-06-17T06:54:50.312Z,22.85
2017-06-17T06:55:49.947Z,22.69
2017-06-17T06:56:50.185Z,22.87
2017-06-17T06:57:50.129Z,22.81
2017-06-17T06:58:49.757Z,22.84
2017-06-17T06:59:50.000Z,22.76
2017-06-17T07:00:49.937Z,22.84
2017-06-17T07:01:49.878Z,22.73
2017-06-17T07:02:49.831Z,22.75
2017-06-17T07:03:49.745Z,22.75
2017-06-17T07:04:49.685Z,22.73
2017-06-17T07:05:49.625Z,22.78
2017-06-17T07:06:49.255Z,22.81
2017-06-17T07:07:49.498Z,22.8
2017-06-17T07:08:49.433Z,22.7
2017-06-17T07:09:49.377Z,22.78
2017-06-17T07:10:49.307Z,22.73
2017-06-17T07:11:49.246Z,22.8
2017-06-17T07:12:49.199Z,22.84
2017-06-17T07:13:49.124Z,22.75
2017-06-17T07:14:49.062Z,22.8
2017-06-17T07:15:48.998Z,22.75
2017-06-17T07:16:48.934Z,22.78
2017-06-17T07:17:48.872Z,22.7
2017-06-17T07:18:49.015Z,22.81
2017-06-17T07:19:48.745Z,22.76
2017-06-17T07:20:48.684Z,22.76
2017-06-17T07:21:48.622Z,22.8
2017-06-17T07:22:48.557Z,22.81
2017-06-17T07:23:48.493Z,22.76
2017-06-17T07:24:48.432Z,22.75
2017-06-17T07:25:48.069Z,22.8
2017-06-17T07:26:48.307Z,22.78
2017-06-17T07:27:47.943Z,22.75
2017-06-17T07:28:48.179Z,22.7
2017-06-17T07:29:48.115Z,22.83
2017-06-17T07:30:48.053Z,22.73
2017-06-17T07:31:47.993Z,22.72
2017-06-17T07:32:47.629Z,22.76
2017-06-17T07:33:47.867Z,22.8
2017-06-17T07:34:47.499Z,22.73
2017-06-17T07:35:47.741Z,22.75
2017-06-17T07:36:47.677Z,22.76
2017-06-17T07:37:47.617Z,22.73
2017-06-17T07:38:47.551Z,22.73
2017-06-17T07:39:47.490Z,22.76
2017-06-17T07:40:47.124Z,22.76
2017-06-17T07:41:47.365Z,22.75
2017-06-17T07:42:47.304Z,22.75
2017-06-17T07:43:47.237Z,22.73
2017-06-17T07:44:47.174Z,22.78
2017-06-17T07:45:47.118Z,22.73
2017-06-17T07:46:46.753Z,22.73
2017-06-17T07:47:46.987Z,22.8
2017-06-17T07:48:46.927Z,22.73
2017-06-17T07:49:46.864Z,22.69
2017-06-17T07:50:46.801Z,22.73
2017-06-17T07:51:46.736Z,22.72
2017-06-17T07:52:46.671Z,22.73
2017-06-17T07:53:46.612Z,22.69
2017-06-17T07:54:46.548Z,22.76
2017-06-17T07:55:46.184Z,22.7
2017-06-17T07:56:46.125Z,22.78
2017-06-17T07:57:46.365Z,22.68
2017-06-17T07:58:46.297Z,22.78
2017-06-17T07:59:46.237Z,22.72
2017-06-17T08:00:46.085Z,22.7
2017-06-17T08:01:46.112Z,22.7
2017-06-17T08:02:46.052Z,22.7
2017-06-17T08:03:45.983Z,22.73
2017-06-17T08:04:45.932Z,22.7
2017-06-17T08:05:45.863Z,22.78
2017-06-17T08:06:45.796Z,22.75
2017-06-17T08:07:45.735Z,22.69
2017-06-17T08:08:45.677Z,22.72
2017-06-17T08:09:45.608Z,22.63
2017-06-17T08:10:45.547Z,22.69
2017-06-17T08:11:45.485Z,22.73
2017-06-17T08:12:45.440Z,22.75
2017-06-17T08:13:45.358Z,22.68
2017-06-17T08:14:45.295Z,22.7
2017-06-17T08:15:45.230Z,22.68
2017-06-17T08:16:45.177Z,22.7
2017-06-17T08:17:45.105Z,22.7
2017-06-17T08:18:45.042Z,22.66
2017-06-17T08:19:44.681Z,22.66
2017-06-17T08:20:44.919Z,22.72
2017-06-17T08:21:44.554Z,22.7
2017-06-17T08:22:44.794Z,22.63
2017-06-17T08:23:44.730Z,22.69
2017-06-17T08:24:44.667Z,22.69
2017-06-17T08:25:44.603Z,22.7
2017-06-17T08:26:44.541Z,22.72
2017-06-17T08:27:44.478Z,22.6
2017-06-17T08:28:44.417Z,22.68
2017-06-17T08:29:44.353Z,22.75
2017-06-17T08:30:44.293Z,22.66
2017-06-17T08:31:44.226Z,22.7
2017-06-17T08:32:44.164Z,22.63
2017-06-17T08:33:44.102Z,22.68
2017-06-17T08:34:43.735Z,22.66
2017-06-17T08:35:43.975Z,22.66
2017-06-17T08:36:43.310Z,22.59
2017-06-17T08:37:43.249Z,22.63
2017-06-17T08:38:43.787Z,22.7
2017-06-17T08:39:43.428Z,22.7
2017-06-17T08:40:43.663Z,22.63
2017-06-17T08:41:43.602Z,22.68
2017-06-17T08:42:43.538Z,22.63
2017-06-17T08:43:42.870Z,22.63
2017-06-17T08:44:43.411Z,22.62
2017-06-17T08:45:43.354Z,22.7
2017-06-17T08:46:43.286Z,22.63
2017-06-17T08:47:43.225Z,22.68
2017-06-17T08:48:43.158Z,22.63
2017-06-17T08:49:42.795Z,22.69
2017-06-17T08:50:43.046Z,22.6
2017-06-17T08:51:42.969Z,22.66
2017-06-17T08:52:42.936Z,22.59
2017-06-17T08:53:42.876Z,22.62
2017-06-17T08:54:42.494Z,22.68
2017-06-17T08:55:42.723Z,22.59
2017-06-17T08:56:42.656Z,22.66
2017-06-17T08:57:42.593Z,22.63
2017-06-17T08:58:42.535Z,22.62
2017-06-17T08:59:42.467Z,22.7
2017-06-17T09:00:42.406Z,22.63
2017-06-17T09:01:42.344Z,22.63
2017-06-17T09:02:42.282Z,22.66
2017-06-17T09:03:41.914Z,22.69
2017-06-17T09:04:42.162Z,22.6
2017-06-17T09:05:42.092Z,22.62
2017-06-17T09:06:42.035Z,22.6
2017-06-17T09:07:41.969Z,22.57
2017-06-17T09:08:41.903Z,22.72
2017-06-17T09:09:41.839Z,22.63
2017-06-17T09:10:41.480Z,22.65
2017-06-17T09:11:41.713Z,22.6
2017-06-17T09:12:41.669Z,22.62
2017-06-17T09:13:41.589Z,22.65
2017-06-17T09:14:41.529Z,22.66
2017-06-17T09:15:41.463Z,22.6
2017-06-17T09:16:41.400Z,22.55
2017-06-17T09:17:41.356Z,22.63
2017-06-17T09:18:41.276Z,22.59
2017-06-17T09:19:41.230Z,22.54
2017-06-17T09:20:41.149Z,22.65
2017-06-17T09:21:41.091Z,22.59
2017-06-17T09:22:41.035Z,22.68
2017-06-17T09:23:40.969Z,22.63
2017-06-17T09:24:40.899Z,22.68
2017-06-17T09:25:40.833Z,22.65
2017-06-17T09:26:40.771Z,22.55
2017-06-17T09:27:40.716Z,22.65
2017-06-17T09:28:40.355Z,22.66
2017-06-17T09:29:40.587Z,22.57
2017-06-17T09:30:40.521Z,22.63
2017-06-17T09:31:39.857Z,22.57
2017-06-17T09:32:39.809Z,22.6
2017-06-17T09:33:40.333Z,22.6
2017-06-17T09:34:40.286Z,22.53
2017-06-17T09:35:39.906Z,22.65
2017-06-17T09:36:39.543Z,22.63
2017-06-17T09:37:39.779Z,22.6
2017-06-17T09:38:39.927Z,22.57
2017-06-17T09:39:39.964Z,22.63
2017-06-17T09:40:39.594Z,22.57
2017-06-17T09:41:39.530Z,22.66
2017-06-17T09:42:39.778Z,22.6
2017-06-17T09:43:39.417Z,22.66
2017-06-17T09:44:39.646Z,22.62
2017-06-17T09:45:39.579Z,22.65
2017-06-17T09:46:39.515Z,22.69
2017-06-17T09:47:39.456Z,22.68
2017-06-17T09:48:39.390Z,22.65
2017-06-17T09:49:39.353Z,22.62
2017-06-17T09:50:39.265Z,22.7
2017-06-17T09:51:39.199Z,22.63
2017-06-17T09:52:39.137Z,22.66
2017-06-17T09:53:38.776Z,22.68
2017-06-17T09:54:39.018Z,22.62
2017-06-17T09:55:38.966Z,22.66
2017-06-17T09:56:38.890Z,22.62
2017-06-17T09:57:38.827Z,22.65
2017-06-17T09:58:38.764Z,22.66
2017-06-17T09:59:38.701Z,22.69
2017-06-17T10:00:38.347Z,22.7
2017-06-17T10:01:38.582Z,22.66
2017-06-17T10:02:38.510Z,22.62
2017-06-17T10:03:38.451Z,22.66
2017-06-17T10:04:38.386Z,22.69
2017-06-17T10:05:38.027Z,22.62
2017-06-17T10:06:38.258Z,22.65
2017-06-17T10:07:38.199Z,22.66
2017-06-17T10:08:38.136Z,22.63
2017-06-17T10:09:38.099Z,22.63
2017-06-17T10:10:38.014Z,22.57
2017-06-17T10:11:37.945Z,22.68
2017-06-17T10:12:37.886Z,22.62
2017-06-17T10:13:37.522Z,22.72
2017-06-17T10:14:37.755Z,22.7
2017-06-17T10:15:37.701Z,22.66
2017-06-17T10:16:37.636Z,22.63
2017-06-17T10:17:37.568Z,22.59
2017-06-17T10:18:37.506Z,22.65
2017-06-17T10:19:37.144Z,22.66
2017-06-17T10:20:37.079Z,22.78
2017-06-17T10:21:37.019Z,22.65
2017-06-17T10:22:37.259Z,22.68
2017-06-17T10:23:37.195Z,22.63
2017-06-17T10:24:37.131Z,22.7
2017-06-17T10:25:37.067Z,22.72
2017-06-17T10:26:36.406Z,22.6
2017-06-17T10:27:36.949Z,22.72
2017-06-17T10:28:36.880Z,22.7
2017-06-17T10:29:36.515Z,22.68
2017-06-17T10:30:36.452Z,22.69
2017-06-17T10:31:36.694Z,22.72
2017-06-17T10:32:36.026Z,22.7
2017-06-17T10:33:36.564Z,22.7
2017-06-17T10:34:36.201Z,22.72
2017-06-17T10:35:36.442Z,22.72
2017-06-17T10:36:36.376Z,22.75
2017-06-17T10:37:36.014Z,22.72
2017-06-17T10:38:35.953Z,22.73
2017-06-17T10:39:36.187Z,22.72
2017-06-17T10:40:36.129Z,22.75
2017-06-17T10:41:36.064Z,22.76
2017-06-17T10:42:36.001Z,22.7
2017-06-17T10:43:35.939Z,22.81
2017-06-17T10:44:35.909Z,22.78
2017-06-17T10:45:35.511Z,22.75
2017-06-17T10:46:35.450Z,22.68
2017-06-17T10:47:35.384Z,22.78
2017-06-17T10:48:35.323Z,22.76
2017-06-17T10:49:35.564Z,22.78
2017-06-17T10:50:35.499Z,22.8
2017-06-17T10:51:35.443Z,22.76
2017-06-17T10:52:35.075Z,22.75
2017-06-17T10:53:35.312Z,22.76
2017-06-17T10:54:35.246Z,22.78
2017-06-17T10:55:34.883Z,22.76
2017-06-17T10:56:34.823Z,22.73
2017-06-17T10:57:35.058Z,22.72
2017-06-17T10:58:34.995Z,22.84
2017-06-17T10:59:34.935Z,22.76
2017-06-17T11:00:34.873Z,22.75
2017-06-17T11:01:34.808Z,22.7
2017-06-17T11:02:34.745Z,22.8
2017-06-17T11:03:34.381Z,22.8
2017-06-17T11:04:34.623Z,22.72
2017-06-17T11:05:34.563Z,22.81
2017-06-17T11:06:34.499Z,22.8
2017-06-17T11:07:34.132Z,22.75
2017-06-17T11:08:34.370Z,22.75
2017-06-17T11:09:34.306Z,22.78
2017-06-17T11:10:34.249Z,22.8
2017-06-17T11:11:34.184Z,22.73
2017-06-17T11:12:34.118Z,22.73
2017-06-17T11:13:34.057Z,22.8
2017-06-17T11:14:33.995Z,22.78
2017-06-17T11:15:33.931Z,22.75
2017-06-17T11:16:33.875Z,22.73
2017-06-17T11:17:33.805Z,22.81
2017-06-17T11:18:33.750Z,22.8
2017-06-17T11:19:33.679Z,22.76
2017-06-17T11:20:33.617Z,22.76
2017-06-17T11:21:32.973Z,22.75
2017-06-17T11:22:32.888Z,22.81
2017-06-17T11:23:33.433Z,22.76
2017-06-17T11:24:33.070Z,22.73
2017-06-17T11:25:33.001Z,22.8
2017-06-17T11:26:32.945Z,22.75
2017-06-17T11:27:33.179Z,22.75
2017-06-17T11:28:33.119Z,22.69
2017-06-17T11:29:32.752Z,22.76
2017-06-17T11:30:32.999Z,22.76
2017-06-17T11:31:32.927Z,22.75
2017-06-17T11:32:32.863Z,22.7
2017-06-17T11:33:32.805Z,22.78
2017-06-17T11:34:32.738Z,22.81
2017-06-17T11:35:32.678Z,22.68
2017-06-17T11:36:32.613Z,22.69
2017-06-17T11:37:32.551Z,22.78
2017-06-17T11:38:32.488Z,22.73
2017-06-17T11:39:32.426Z,22.78
2017-06-17T11:40:32.064Z,22.75
2017-06-17T11:41:32.299Z,22.78
2017-06-17T11:42:31.938Z,22.75
2017-06-17T11:43:31.874Z,22.68
2017-06-17T11:44:32.114Z,22.76
2017-06-17T11:45:32.047Z,22.75
2017-06-17T11:46:31.986Z,22.76
2017-06-17T11:47:31.924Z,22.73
2017-06-17T11:48:31.859Z,22.75
2017-06-17T11:49:31.503Z,22.73
2017-06-17T11:50:31.445Z,22.76
2017-06-17T11:51:31.374Z,22.68
2017-06-17T11:52:31.610Z,22.63
2017-06-17T11:53:31.545Z,22.75
2017-06-17T11:54:31.484Z,22.69
2017-06-17T11:55:31.422Z,22.73
2017-06-17T11:56:31.358Z,22.7
2017-06-17T11:57:31.294Z,22.72
2017-06-17T11:58:31.236Z,22.75
2017-06-17T11:59:31.190Z,22.7
2017-06-17T12:00:31.105Z,22.7
2017-06-17T12:01:31.043Z,22.72
2017-06-17T12:02:30.979Z,22.63
2017-06-17T12:03:30.917Z,22.75
2017-06-17T12:04:30.854Z,22.6
2017-06-17T12:05:30.793Z,22.72
2017-06-17T12:06:30.433Z,22.62
2017-06-17T12:07:30.667Z,22.66
2017-06-17T12:08:30.609Z,22.63
2017-06-17T12:09:30.539Z,22.68
2017-06-17T12:10:30.478Z,22.69
2017-06-17T12:11:30.114Z,22.65
2017-06-17T12:12:30.354Z,22.69
2017-06-17T12:13:30.288Z,22.62
2017-06-17T12:14:30.227Z,22.66
2017-06-17T12:15:30.162Z,22.63
2017-06-17T12:16:30.111Z,22.66
2017-06-17T12:17:30.044Z,22.68
2017-06-17T12:18:29.973Z,22.62
2017-06-17T12:19:29.916Z,22.62
2017-06-17T12:20:29.849Z,22.54
2017-06-17T12:21:29.787Z,22.66
2017-06-17T12:22:29.721Z,22.6
2017-06-17T12:23:29.660Z,22.72
2017-06-17T12:24:29.597Z,22.68
2017-06-17T12:25:29.535Z,22.62
2017-06-17T12:26:29.474Z,22.65
2017-06-17T12:27:29.417Z,22.57
2017-06-17T12:28:29.346Z,22.66
2017-06-17T12:29:29.279Z,22.68
2017-06-17T12:30:29.218Z,22.68
2017-06-17T12:31:29.156Z,22.69
2017-06-17T12:32:29.094Z,22.57
2017-06-17T12:33:28.740Z,22.54
2017-06-17T12:34:28.969Z,22.57
2017-06-17T12:35:28.602Z,22.54
2017-06-17T12:36:28.541Z,22.69
2017-06-17T12:37:28.783Z,22.55
2017-06-17T12:38:28.719Z,22.59
2017-06-17T12:39:28.652Z,22.57
2017-06-17T12:40:28.592Z,22.66
2017-06-17T12:41:28.537Z,22.54
2017-06-17T12:42:28.465Z,22.63
2017-06-17T12:43:28.400Z,22.59
2017-06-17T12:44:28.337Z,22.62
2017-06-17T12:45:28.275Z,22.63
2017-06-17T12:46:28.212Z,22.57
2017-06-17T12:47:28.149Z,22.55
2017-06-17T12:48:28.086Z,22.53
2017-06-17T12:49:28.029Z,22.57
2017-06-17T12:50:27.960Z,22.54
2017-06-17T12:51:27.307Z,22.59
2017-06-17T12:52:27.837Z,22.54
2017-06-17T12:53:27.774Z,22.59
2017-06-17T12:54:27.707Z,22.59
2017-06-17T12:55:27.647Z,22.65
2017-06-17T12:56:27.590Z,22.62